Aviation Digital Data Service (ADDS)

Output produced by METARs form (1920 UTC 26 September 2021)
found at http://www.aviationweather.gov/metar/data/
 
METAR text: YSSY 261900Z 33005KT 9999 FEW035 BKN055 11/08 Q1025
Conditions at: YSSY (SYDNEY INTL AIRP, AU) observed 1900 UTC 26 September 2021
Temperature: 11.0°C (52°F)
Dewpoint: 8.0°C (46°F) [RH = 82%]
Pressure (altimeter): 30.27 inches Hg (1025.0 mb)
Winds: from the NNW (330 degrees) at 6 MPH (5 knots; 2.6 m/s)
Visibility: 6 or more miles (10+ km)
Ceiling: 5500 feet AGL
Clouds: few clouds at 3500 feet AGL
broken clouds at 5500 feet AGL
Weather: no significant weather observed at this time

METAR text: YSSY 261830Z 00000KT 9999 FEW035 BKN060 10/08 Q1025
Conditions at: YSSY (SYDNEY INTL AIRP, AU) observed 1830 UTC 26 September 2021
Temperature: 10.0°C (50°F)
Dewpoint: 8.0°C (46°F) [RH = 87%]
Pressure (altimeter): 30.27 inches Hg (1025.0 mb)
Winds: calm
Visibility: 6 or more miles (10+ km)
Ceiling: 6000 feet AGL
Clouds: few clouds at 3500 feet AGL
broken clouds at 6000 feet AGL
Weather: no significant weather observed at this time

METAR text: YSSY 261800Z 33005KT 9999 FEW040 BKN050 10/08 Q1025
Conditions at: YSSY (SYDNEY INTL AIRP, AU) observed 1800 UTC 26 September 2021
Temperature: 10.0°C (50°F)
Dewpoint: 8.0°C (46°F) [RH = 87%]
Pressure (altimeter): 30.27 inches Hg (1025.0 mb)
Winds: from the NNW (330 degrees) at 6 MPH (5 knots; 2.6 m/s)
Visibility: 6 or more miles (10+ km)
Ceiling: 5000 feet AGL
Clouds: few clouds at 4000 feet AGL
broken clouds at 5000 feet AGL
Weather: no significant weather observed at this time

METAR text: YSSY 261730Z 30007KT 9999 FEW040 BKN060 10/08 Q1025
Conditions at: YSSY (SYDNEY INTL AIRP, AU) observed 1730 UTC 26 September 2021
Temperature: 10.0°C (50°F)
Dewpoint: 8.0°C (46°F) [RH = 87%]
Pressure (altimeter): 30.27 inches Hg (1025.0 mb)
Winds: from the WNW (300 degrees) at 8 MPH (7 knots; 3.6 m/s)
Visibility: 6 or more miles (10+ km)
Ceiling: 6000 feet AGL
Clouds: few clouds at 4000 feet AGL
broken clouds at 6000 feet AGL
Weather: no significant weather observed at this time

METAR text: YSSY 261700Z 33005KT 9999 FEW040 BKN060 11/09 Q1025
Conditions at: YSSY (SYDNEY INTL AIRP, AU) observed 1700 UTC 26 September 2021
Temperature: 11.0°C (52°F)
Dewpoint: 9.0°C (48°F) [RH = 87%]
Pressure (altimeter): 30.27 inches Hg (1025.0 mb)
Winds: from the NNW (330 degrees) at 6 MPH (5 knots; 2.6 m/s)
Visibility: 6 or more miles (10+ km)
Ceiling: 6000 feet AGL
Clouds: few clouds at 4000 feet AGL
broken clouds at 6000 feet AGL
Weather: no significant weather observed at this time

METAR text: YSSY 261630Z 32004KT 9999 FEW040 BKN060 11/09 Q1025
Conditions at: YSSY (SYDNEY INTL AIRP, AU) observed 1630 UTC 26 September 2021
Temperature: 11.0°C (52°F)
Dewpoint: 9.0°C (48°F) [RH = 87%]
Pressure (altimeter): 30.27 inches Hg (1025.0 mb)
Winds: from the NW (320 degrees) at 5 MPH (4 knots; 2.1 m/s)
Visibility: 6 or more miles (10+ km)
Ceiling: 6000 feet AGL
Clouds: few clouds at 4000 feet AGL
broken clouds at 6000 feet AGL
Weather: no significant weather observed at this time

METAR text: YSSY 261600Z 26005KT 9999 FEW037 BKN060 11/09 Q1025
Conditions at: YSSY (SYDNEY INTL AIRP, AU) observed 1600 UTC 26 September 2021
Temperature: 11.0°C (52°F)
Dewpoint: 9.0°C (48°F) [RH = 87%]
Pressure (altimeter): 30.27 inches Hg (1025.0 mb)
Winds: from the W (260 degrees) at 6 MPH (5 knots; 2.6 m/s)
Visibility: 6 or more miles (10+ km)
Ceiling: 6000 feet AGL
Clouds: few clouds at 3700 feet AGL
broken clouds at 6000 feet AGL
Weather: no significant weather observed at this time

METAR text: YSSY 261530Z 28004KT 9999 FEW040 SCT060 12/09 Q1026
Conditions at: YSSY (SYDNEY INTL AIRP, AU) observed 1530 UTC 26 September 2021
Temperature: 12.0°C (54°F)
Dewpoint: 9.0°C (48°F) [RH = 82%]
Pressure (altimeter): 30.30 inches Hg (1026.0 mb)
Winds: from the W (280 degrees) at 5 MPH (4 knots; 2.1 m/s)
Visibility: 6 or more miles (10+ km)
Ceiling: at least 12,000 feet AGL
Clouds: few clouds at 4000 feet AGL
scattered clouds at 6000 feet AGL
Weather: no significant weather observed at this time

METAR text: YSSY 261500Z 30005KT 9999 FEW042 BKN060 12/09 Q1026
Conditions at: YSSY (SYDNEY INTL AIRP, AU) observed 1500 UTC 26 September 2021
Temperature: 12.0°C (54°F)
Dewpoint: 9.0°C (48°F) [RH = 82%]
Pressure (altimeter): 30.30 inches Hg (1026.0 mb)
Winds: from the WNW (300 degrees) at 6 MPH (5 knots; 2.6 m/s)
Visibility: 6 or more miles (10+ km)
Ceiling: 6000 feet AGL
Clouds: few clouds at 4200 feet AGL
broken clouds at 6000 feet AGL
Weather: no significant weather observed at this time

METAR text: YSSY 261430Z 29005KT 9999 SCT045 BKN060 12/09 Q1026
Conditions at: YSSY (SYDNEY INTL AIRP, AU) observed 1430 UTC 26 September 2021
Temperature: 12.0°C (54°F)
Dewpoint: 9.0°C (48°F) [RH = 82%]
Pressure (altimeter): 30.30 inches Hg (1026.0 mb)
Winds: from the WNW (290 degrees) at 6 MPH (5 knots; 2.6 m/s)
Visibility: 6 or more miles (10+ km)
Ceiling: 6000 feet AGL
Clouds: scattered clouds at 4500 feet AGL
broken clouds at 6000 feet AGL
Weather: no significant weather observed at this time

METAR text: YSSY 261400Z 29005KT 270V330 9999 FEW037 SCT045 BKN055 12/09 Q1026
Conditions at: YSSY (SYDNEY INTL AIRP, AU) observed 1400 UTC 26 September 2021
Temperature: 12.0°C (54°F)
Dewpoint: 9.0°C (48°F) [RH = 82%]
Pressure (altimeter): 30.30 inches Hg (1026.0 mb)
Winds: from the WNW (290 degrees) at 6 MPH (5 knots; 2.6 m/s)
Visibility: 6 or more miles (10+ km)
Ceiling: 5500 feet AGL
Clouds: few clouds at 3700 feet AGL
scattered clouds at 4500 feet AGL
broken clouds at 5500 feet AGL
Weather: no significant weather observed at this time

METAR text: YSSY 261330Z 27007KT 9999 -DZ SCT040 BKN054 12/09 Q1027
Conditions at: YSSY (SYDNEY INTL AIRP, AU) observed 1330 UTC 26 September 2021
Temperature: 12.0°C (54°F)
Dewpoint: 9.0°C (48°F) [RH = 82%]
Pressure (altimeter): 30.32 inches Hg (1027.0 mb)
Winds: from the W (270 degrees) at 8 MPH (7 knots; 3.6 m/s)
Visibility: 6 or more miles (10+ km)
Ceiling: 5400 feet AGL
Clouds: scattered clouds at 4000 feet AGL
broken clouds at 5400 feet AGL
Weather: -DZ  (light drizzle)

METAR text: YSSY 261300Z 25007KT 9999 -SHRA SCT037 BKN042 BKN060 13/08 Q1027
Conditions at: YSSY (SYDNEY INTL AIRP, AU) observed 1300 UTC 26 September 2021
Temperature: 13.0°C (55°F)
Dewpoint: 8.0°C (46°F) [RH = 72%]
Pressure (altimeter): 30.32 inches Hg (1027.0 mb)
Winds: from the WSW (250 degrees) at 8 MPH (7 knots; 3.6 m/s)
Visibility: 6 or more miles (10+ km)
Ceiling: 4200 feet AGL
Clouds: scattered clouds at 3700 feet AGL
broken clouds at 4200 feet AGL
broken clouds at 6000 feet AGL
Weather: -SHRA  (light rain showers)

METAR text: YSSY 261230Z 33004KT 260V350 9999 -DZ VCSH FEW037 BKN054 BKN070 13/08 Q1027
Conditions at: YSSY (SYDNEY INTL AIRP, AU) observed 1230 UTC 26 September 2021
Temperature: 13.0°C (55°F)
Dewpoint: 8.0°C (46°F) [RH = 72%]
Pressure (altimeter): 30.32 inches Hg (1027.0 mb)
Winds: from the NNW (330 degrees) at 5 MPH (4 knots; 2.1 m/s)
Visibility: 6 or more miles (10+ km)
Ceiling: 5400 feet AGL
Clouds: few clouds at 3700 feet AGL
broken clouds at 5400 feet AGL
broken clouds at 7000 feet AGL
Weather: -DZ VCSH  (light drizzle, showers in vicinity)

METAR text: YSSY 261200Z 32006KT 9999 VCSH FEW035 BKN070 13/08 Q1027
Conditions at: YSSY (SYDNEY INTL AIRP, AU) observed 1200 UTC 26 September 2021
Temperature: 13.0°C (55°F)
Dewpoint: 8.0°C (46°F) [RH = 72%]
Pressure (altimeter): 30.32 inches Hg (1027.0 mb)
Winds: from the NW (320 degrees) at 7 MPH (6 knots; 3.1 m/s)
Visibility: 6 or more miles (10+ km)
Ceiling: 7000 feet AGL
Clouds: few clouds at 3500 feet AGL
broken clouds at 7000 feet AGL
Weather: VCSH  (showers in vicinity)

METAR text: YSSY 261130Z 33007KT 9999 VCSH SCT037 BKN065 14/08 Q1027
Conditions at: YSSY (SYDNEY INTL AIRP, AU) observed 1130 UTC 26 September 2021
Temperature: 14.0°C (57°F)
Dewpoint: 8.0°C (46°F) [RH = 67%]
Pressure (altimeter): 30.32 inches Hg (1027.0 mb)
Winds: from the NNW (330 degrees) at 8 MPH (7 knots; 3.6 m/s)
Visibility: 6 or more miles (10+ km)
Ceiling: 6500 feet AGL
Clouds: scattered clouds at 3700 feet AGL
broken clouds at 6500 feet AGL
Weather: VCSH  (showers in vicinity)

METAR text: YSSY 261100Z 01005KT 9999 VCSH SCT035 BKN054 14/08 Q1027
Conditions at: YSSY (SYDNEY INTL AIRP, AU) observed 1100 UTC 26 September 2021
Temperature: 14.0°C (57°F)
Dewpoint: 8.0°C (46°F) [RH = 67%]
Pressure (altimeter): 30.32 inches Hg (1027.0 mb)
Winds: from the N (10 degrees) at 6 MPH (5 knots; 2.6 m/s)
Visibility: 6 or more miles (10+ km)
Ceiling: 5400 feet AGL
Clouds: scattered clouds at 3500 feet AGL
broken clouds at 5400 feet AGL
Weather: VCSH  (showers in vicinity)

METAR text: YSSY 261030Z 10009KT 9999 FEW037 BKN045 14/07 Q1027
Conditions at: YSSY (SYDNEY INTL AIRP, AU) observed 1030 UTC 26 September 2021
Temperature: 14.0°C (57°F)
Dewpoint: 7.0°C (45°F) [RH = 63%]
Pressure (altimeter): 30.32 inches Hg (1027.0 mb)
Winds: from the E (100 degrees) at 10 MPH (9 knots; 4.6 m/s)
Visibility: 6 or more miles (10+ km)
Ceiling: 4500 feet AGL
Clouds: few clouds at 3700 feet AGL
broken clouds at 4500 feet AGL
Weather: no significant weather observed at this time

METAR text: YSSY 261000Z 14011KT 9999 VCSH FEW036 BKN050 14/07 Q1027
Conditions at: YSSY (SYDNEY INTL AIRP, AU) observed 1000 UTC 26 September 2021
Temperature: 14.0°C (57°F)
Dewpoint: 7.0°C (45°F) [RH = 63%]
Pressure (altimeter): 30.32 inches Hg (1027.0 mb)
Winds: from the SE (140 degrees) at 13 MPH (11 knots; 5.7 m/s)
Visibility: 6 or more miles (10+ km)
Ceiling: 5000 feet AGL
Clouds: few clouds at 3600 feet AGL
broken clouds at 5000 feet AGL
Weather: VCSH  (showers in vicinity)

METAR text: YSSY 260930Z 06004KT 9999 -SHRA FEW036 SCT045 BKN060 13/08 Q1027
Conditions at: YSSY (SYDNEY INTL AIRP, AU) observed 0930 UTC 26 September 2021
Temperature: 13.0°C (55°F)
Dewpoint: 8.0°C (46°F) [RH = 72%]
Pressure (altimeter): 30.32 inches Hg (1027.0 mb)
Winds: from the ENE (60 degrees) at 5 MPH (4 knots; 2.1 m/s)
Visibility: 6 or more miles (10+ km)
Ceiling: 6000 feet AGL
Clouds: few clouds at 3600 feet AGL
scattered clouds at 4500 feet AGL
broken clouds at 6000 feet AGL
Weather: -SHRA  (light rain showers)

METAR text: YSSY 260900Z 10012KT 9999 -SHRA SCT027 SCT032 BKN040 13/08 Q1027
Conditions at: YSSY (SYDNEY INTL AIRP, AU) observed 0900 UTC 26 September 2021
Temperature: 13.0°C (55°F)
Dewpoint: 8.0°C (46°F) [RH = 72%]
Pressure (altimeter): 30.32 inches Hg (1027.0 mb)
Winds: from the E (100 degrees) at 14 MPH (12 knots; 6.2 m/s)
Visibility: 6 or more miles (10+ km)
Ceiling: 4000 feet AGL
Clouds: scattered clouds at 2700 feet AGL
scattered clouds at 3200 feet AGL
broken clouds at 4000 feet AGL
Weather: -SHRA  (light rain showers)

METAR text: YSSY 260830Z 09007KT 9999 VCSH SCT033 BKN060 13/09 Q1026
Conditions at: YSSY (SYDNEY INTL AIRP, AU) observed 0830 UTC 26 September 2021
Temperature: 13.0°C (55°F)
Dewpoint: 9.0°C (48°F) [RH = 77%]
Pressure (altimeter): 30.30 inches Hg (1026.0 mb)
Winds: from the E (90 degrees) at 8 MPH (7 knots; 3.6 m/s)
Visibility: 6 or more miles (10+ km)
Ceiling: 6000 feet AGL
Clouds: scattered clouds at 3300 feet AGL
broken clouds at 6000 feet AGL
Weather: VCSH  (showers in vicinity)

METAR text: YSSY 260800Z 12013KT 9999 -SHRA FEW019 SCT035 BKN065 14/06 Q1026
Conditions at: YSSY (SYDNEY INTL AIRP, AU) observed 0800 UTC 26 September 2021
Temperature: 14.0°C (57°F)
Dewpoint: 6.0°C (43°F) [RH = 58%]
Pressure (altimeter): 30.30 inches Hg (1026.0 mb)
Winds: from the ESE (120 degrees) at 15 MPH (13 knots; 6.7 m/s)
Visibility: 6 or more miles (10+ km)
Ceiling: 6500 feet AGL
Clouds: few clouds at 1900 feet AGL
scattered clouds at 3500 feet AGL
broken clouds at 6500 feet AGL
Weather: -SHRA  (light rain showers)

METAR text: YSSY 260730Z 16016KT 9999 VCSH SCT035 BKN070 15/06 Q1026
Conditions at: YSSY (SYDNEY INTL AIRP, AU) observed 0730 UTC 26 September 2021
Temperature: 15.0°C (59°F)
Dewpoint: 6.0°C (43°F) [RH = 55%]
Pressure (altimeter): 30.30 inches Hg (1026.0 mb)
Winds: from the SSE (160 degrees) at 18 MPH (16 knots; 8.2 m/s)
Visibility: 6 or more miles (10+ km)
Ceiling: 7000 feet AGL
Clouds: scattered clouds at 3500 feet AGL
broken clouds at 7000 feet AGL
Weather: VCSH  (showers in vicinity)

METAR text: YSSY 260700Z 16017KT 9999 FEW030 BKN070 15/08 Q1026
Conditions at: YSSY (SYDNEY INTL AIRP, AU) observed 0700 UTC 26 September 2021
Temperature: 15.0°C (59°F)
Dewpoint: 8.0°C (46°F) [RH = 63%]
Pressure (altimeter): 30.30 inches Hg (1026.0 mb)
Winds: from the SSE (160 degrees) at 20 MPH (17 knots; 8.7 m/s)
Visibility: 6 or more miles (10+ km)
Ceiling: 7000 feet AGL
Clouds: few clouds at 3000 feet AGL
broken clouds at 7000 feet AGL
Weather: no significant weather observed at this time

METAR text: YSSY 260630Z 17019KT 9999 SCT030 BKN070 15/09 Q1026
Conditions at: YSSY (SYDNEY INTL AIRP, AU) observed 0630 UTC 26 September 2021
Temperature: 15.0°C (59°F)
Dewpoint: 9.0°C (48°F) [RH = 67%]
Pressure (altimeter): 30.30 inches Hg (1026.0 mb)
Winds: from the S (170 degrees) at 22 MPH (19 knots; 9.8 m/s)
Visibility: 6 or more miles (10+ km)
Ceiling: 7000 feet AGL
Clouds: scattered clouds at 3000 feet AGL
broken clouds at 7000 feet AGL
Weather: no significant weather observed at this time

METAR text: YSSY 260600Z 17019KT 9999 VCSH FEW030 BKN070 15/09 Q1026
Conditions at: YSSY (SYDNEY INTL AIRP, AU) observed 0600 UTC 26 September 2021
Temperature: 15.0°C (59°F)
Dewpoint: 9.0°C (48°F) [RH = 67%]
Pressure (altimeter): 30.30 inches Hg (1026.0 mb)
Winds: from the S (170 degrees) at 22 MPH (19 knots; 9.8 m/s)
Visibility: 6 or more miles (10+ km)
Ceiling: 7000 feet AGL
Clouds: few clouds at 3000 feet AGL
broken clouds at 7000 feet AGL
Weather: VCSH  (showers in vicinity)

METAR text: YSSY 260530Z 17020KT 9999 FEW030 BKN070 15/09 Q1025
Conditions at: YSSY (SYDNEY INTL AIRP, AU) observed 0530 UTC 26 September 2021
Temperature: 15.0°C (59°F)
Dewpoint: 9.0°C (48°F) [RH = 67%]
Pressure (altimeter): 30.27 inches Hg (1025.0 mb)
Winds: from the S (170 degrees) at 23 MPH (20 knots; 10.3 m/s)
Visibility: 6 or more miles (10+ km)
Ceiling: 7000 feet AGL
Clouds: few clouds at 3000 feet AGL
broken clouds at 7000 feet AGL
Weather: no significant weather observed at this time

METAR text: YSSY 260500Z 17019KT 9999 SCT030 BKN070 15/08 Q1025
Conditions at: YSSY (SYDNEY INTL AIRP, AU) observed 0500 UTC 26 September 2021
Temperature: 15.0°C (59°F)
Dewpoint: 8.0°C (46°F) [RH = 63%]
Pressure (altimeter): 30.27 inches Hg (1025.0 mb)
Winds: from the S (170 degrees) at 22 MPH (19 knots; 9.8 m/s)
Visibility: 6 or more miles (10+ km)
Ceiling: 7000 feet AGL
Clouds: scattered clouds at 3000 feet AGL
broken clouds at 7000 feet AGL
Weather: no significant weather observed at this time

METAR text: YSSY 260430Z 17018KT 9999 SCT030 BKN070 15/08 Q1025
Conditions at: YSSY (SYDNEY INTL AIRP, AU) observed 0430 UTC 26 September 2021
Temperature: 15.0°C (59°F)
Dewpoint: 8.0°C (46°F) [RH = 63%]
Pressure (altimeter): 30.27 inches Hg (1025.0 mb)
Winds: from the S (170 degrees) at 21 MPH (18 knots; 9.3 m/s)
Visibility: 6 or more miles (10+ km)
Ceiling: 7000 feet AGL
Clouds: scattered clouds at 3000 feet AGL
broken clouds at 7000 feet AGL
Weather: no significant weather observed at this time

METAR text: YSSY 260400Z 18019KT 9999 SCT032 BKN065 15/08 Q1026
Conditions at: YSSY (SYDNEY INTL AIRP, AU) observed 0400 UTC 26 September 2021
Temperature: 15.0°C (59°F)
Dewpoint: 8.0°C (46°F) [RH = 63%]
Pressure (altimeter): 30.30 inches Hg (1026.0 mb)
Winds: from the S (180 degrees) at 22 MPH (19 knots; 9.8 m/s)
Visibility: 6 or more miles (10+ km)
Ceiling: 6500 feet AGL
Clouds: scattered clouds at 3200 feet AGL
broken clouds at 6500 feet AGL
Weather: no significant weather observed at this time

METAR text: YSSY 260330Z 17019KT 9999 VCSH SCT030 BKN067 15/08 Q1026
Conditions at: YSSY (SYDNEY INTL AIRP, AU) observed 0330 UTC 26 September 2021
Temperature: 15.0°C (59°F)
Dewpoint: 8.0°C (46°F) [RH = 63%]
Pressure (altimeter): 30.30 inches Hg (1026.0 mb)
Winds: from the S (170 degrees) at 22 MPH (19 knots; 9.8 m/s)
Visibility: 6 or more miles (10+ km)
Ceiling: 6700 feet AGL
Clouds: scattered clouds at 3000 feet AGL
broken clouds at 6700 feet AGL
Weather: VCSH  (showers in vicinity)

METAR text: YSSY 260300Z 17019KT 9999 SCT035 BKN070 15/08 Q1026
Conditions at: YSSY (SYDNEY INTL AIRP, AU) observed 0300 UTC 26 September 2021
Temperature: 15.0°C (59°F)
Dewpoint: 8.0°C (46°F) [RH = 63%]
Pressure (altimeter): 30.30 inches Hg (1026.0 mb)
Winds: from the S (170 degrees) at 22 MPH (19 knots; 9.8 m/s)
Visibility: 6 or more miles (10+ km)
Ceiling: 7000 feet AGL
Clouds: scattered clouds at 3500 feet AGL
broken clouds at 7000 feet AGL
Weather: no significant weather observed at this time

METAR text: YSSY 260230Z 17020KT 9999 SCT030 BKN070 15/07 Q1026
Conditions at: YSSY (SYDNEY INTL AIRP, AU) observed 0230 UTC 26 September 2021
Temperature: 15.0°C (59°F)
Dewpoint: 7.0°C (45°F) [RH = 59%]
Pressure (altimeter): 30.30 inches Hg (1026.0 mb)
Winds: from the S (170 degrees) at 23 MPH (20 knots; 10.3 m/s)
Visibility: 6 or more miles (10+ km)
Ceiling: 7000 feet AGL
Clouds: scattered clouds at 3000 feet AGL
broken clouds at 7000 feet AGL
Weather: no significant weather observed at this time

METAR text: YSSY 260200Z 17020KT 9999 SCT030 SCT045 BKN075 15/08 Q1026
Conditions at: YSSY (SYDNEY INTL AIRP, AU) observed 0200 UTC 26 September 2021
Temperature: 15.0°C (59°F)
Dewpoint: 8.0°C (46°F) [RH = 63%]
Pressure (altimeter): 30.30 inches Hg (1026.0 mb)
Winds: from the S (170 degrees) at 23 MPH (20 knots; 10.3 m/s)
Visibility: 6 or more miles (10+ km)
Ceiling: 7500 feet AGL
Clouds: scattered clouds at 3000 feet AGL
scattered clouds at 4500 feet AGL
broken clouds at 7500 feet AGL
Weather: no significant weather observed at this time

METAR text: YSSY 260130Z 18021KT 9999 VCSH SCT033 BKN075 15/08 Q1026
Conditions at: YSSY (SYDNEY INTL AIRP, AU) observed 0130 UTC 26 September 2021
Temperature: 15.0°C (59°F)
Dewpoint: 8.0°C (46°F) [RH = 63%]
Pressure (altimeter): 30.30 inches Hg (1026.0 mb)
Winds: from the S (180 degrees) at 24 MPH (21 knots; 10.8 m/s)
Visibility: 6 or more miles (10+ km)
Ceiling: 7500 feet AGL
Clouds: scattered clouds at 3300 feet AGL
broken clouds at 7500 feet AGL
Weather: VCSH  (showers in vicinity)

METAR text: YSSY 260100Z 17020KT 9999 VCSH FEW020 SCT035 BKN075 15/08 Q1026
Conditions at: YSSY (SYDNEY INTL AIRP, AU) observed 0100 UTC 26 September 2021
Temperature: 15.0°C (59°F)
Dewpoint: 8.0°C (46°F) [RH = 63%]
Pressure (altimeter): 30.30 inches Hg (1026.0 mb)
Winds: from the S (170 degrees) at 23 MPH (20 knots; 10.3 m/s)
Visibility: 6 or more miles (10+ km)
Ceiling: 7500 feet AGL
Clouds: few clouds at 2000 feet AGL
scattered clouds at 3500 feet AGL
broken clouds at 7500 feet AGL
Weather: VCSH  (showers in vicinity)

METAR text: YSSY 260030Z 18021KT 9999 VCSH SCT035 SCT045 BKN070 15/08 Q1026
Conditions at: YSSY (SYDNEY INTL AIRP, AU) observed 0030 UTC 26 September 2021
Temperature: 15.0°C (59°F)
Dewpoint: 8.0°C (46°F) [RH = 63%]
Pressure (altimeter): 30.30 inches Hg (1026.0 mb)
Winds: from the S (180 degrees) at 24 MPH (21 knots; 10.8 m/s)
Visibility: 6 or more miles (10+ km)
Ceiling: 7000 feet AGL
Clouds: scattered clouds at 3500 feet AGL
scattered clouds at 4500 feet AGL
broken clouds at 7000 feet AGL
Weather: VCSH  (showers in vicinity)

METAR text: YSSY 260000Z 17021KT 9999 VCSH SCT035 SCT040 BKN060 15/08 Q1026
Conditions at: YSSY (SYDNEY INTL AIRP, AU) observed 0000 UTC 26 September 2021
Temperature: 15.0°C (59°F)
Dewpoint: 8.0°C (46°F) [RH = 63%]
Pressure (altimeter): 30.30 inches Hg (1026.0 mb)
Winds: from the S (170 degrees) at 24 MPH (21 knots; 10.8 m/s)
Visibility: 6 or more miles (10+ km)
Ceiling: 6000 feet AGL
Clouds: scattered clouds at 3500 feet AGL
scattered clouds at 4000 feet AGL
broken clouds at 6000 feet AGL
Weather: VCSH  (showers in vicinity)

METAR text: YSSY 252330Z 18021KT 9999 VCSH SCT035 SCT045 BKN060 14/08 Q1026
Conditions at: YSSY (SYDNEY INTL AIRP, AU) observed 2330 UTC 25 September 2021
Temperature: 14.0°C (57°F)
Dewpoint: 8.0°C (46°F) [RH = 67%]
Pressure (altimeter): 30.30 inches Hg (1026.0 mb)
Winds: from the S (180 degrees) at 24 MPH (21 knots; 10.8 m/s)
Visibility: 6 or more miles (10+ km)
Ceiling: 6000 feet AGL
Clouds: scattered clouds at 3500 feet AGL
scattered clouds at 4500 feet AGL
broken clouds at 6000 feet AGL
Weather: VCSH  (showers in vicinity)

METAR text: YSSY 252300Z 18021KT 9999 VCSH SCT035 SCT045 BKN060 14/07 Q1026
Conditions at: YSSY (SYDNEY INTL AIRP, AU) observed 2300 UTC 25 September 2021
Temperature: 14.0°C (57°F)
Dewpoint: 7.0°C (45°F) [RH = 63%]
Pressure (altimeter): 30.30 inches Hg (1026.0 mb)
Winds: from the S (180 degrees) at 24 MPH (21 knots; 10.8 m/s)
Visibility: 6 or more miles (10+ km)
Ceiling: 6000 feet AGL
Clouds: scattered clouds at 3500 feet AGL
scattered clouds at 4500 feet AGL
broken clouds at 6000 feet AGL
Weather: VCSH  (showers in vicinity)

METAR text: YSSY 252230Z 18020KT 9999 VCSH FEW030 SCT038 BKN055 14/08 Q1026
Conditions at: YSSY (SYDNEY INTL AIRP, AU) observed 2230 UTC 25 September 2021
Temperature: 14.0°C (57°F)
Dewpoint: 8.0°C (46°F) [RH = 67%]
Pressure (altimeter): 30.30 inches Hg (1026.0 mb)
Winds: from the S (180 degrees) at 23 MPH (20 knots; 10.3 m/s)
Visibility: 6 or more miles (10+ km)
Ceiling: 5500 feet AGL
Clouds: few clouds at 3000 feet AGL
scattered clouds at 3800 feet AGL
broken clouds at 5500 feet AGL
Weather: VCSH  (showers in vicinity)

METAR text: YSSY 252200Z 17019KT 9999 FEW025 SCT030 BKN045 14/08 Q1025
Conditions at: YSSY (SYDNEY INTL AIRP, AU) observed 2200 UTC 25 September 2021
Temperature: 14.0°C (57°F)
Dewpoint: 8.0°C (46°F) [RH = 67%]
Pressure (altimeter): 30.27 inches Hg (1025.0 mb)
Winds: from the S (170 degrees) at 22 MPH (19 knots; 9.8 m/s)
Visibility: 6 or more miles (10+ km)
Ceiling: 4500 feet AGL
Clouds: few clouds at 2500 feet AGL
scattered clouds at 3000 feet AGL
broken clouds at 4500 feet AGL
Weather: no significant weather observed at this time

METAR text: YSSY 252130Z 17020KT 9999 VCSH FEW023 SCT035 BKN050 14/08 Q1025
Conditions at: YSSY (SYDNEY INTL AIRP, AU) observed 2130 UTC 25 September 2021
Temperature: 14.0°C (57°F)
Dewpoint: 8.0°C (46°F) [RH = 67%]
Pressure (altimeter): 30.27 inches Hg (1025.0 mb)
Winds: from the S (170 degrees) at 23 MPH (20 knots; 10.3 m/s)
Visibility: 6 or more miles (10+ km)
Ceiling: 5000 feet AGL
Clouds: few clouds at 2300 feet AGL
scattered clouds at 3500 feet AGL
broken clouds at 5000 feet AGL
Weather: VCSH  (showers in vicinity)

METAR text: YSSY 252100Z 17021KT 9999 FEW022 BKN040 BKN080 13/08 Q1025
Conditions at: YSSY (SYDNEY INTL AIRP, AU) observed 2100 UTC 25 September 2021
Temperature: 13.0°C (55°F)
Dewpoint: 8.0°C (46°F) [RH = 72%]
Pressure (altimeter): 30.27 inches Hg (1025.0 mb)
Winds: from the S (170 degrees) at 24 MPH (21 knots; 10.8 m/s)
Visibility: 6 or more miles (10+ km)
Ceiling: 4000 feet AGL
Clouds: few clouds at 2200 feet AGL
broken clouds at 4000 feet AGL
broken clouds at 8000 feet AGL
Weather: no significant weather observed at this time

METAR text: YSSY 252030Z 17022KT 9999 VCSH FEW022 BKN035 BKN075 13/09 Q1025
Conditions at: YSSY (SYDNEY INTL AIRP, AU) observed 2030 UTC 25 September 2021
Temperature: 13.0°C (55°F)
Dewpoint: 9.0°C (48°F) [RH = 77%]
Pressure (altimeter): 30.27 inches Hg (1025.0 mb)
Winds: from the S (170 degrees) at 25 MPH (22 knots; 11.3 m/s)
Visibility: 6 or more miles (10+ km)
Ceiling: 3500 feet AGL
Clouds: few clouds at 2200 feet AGL
broken clouds at 3500 feet AGL
broken clouds at 7500 feet AGL
Weather: VCSH  (showers in vicinity)

METAR text: YSSY 252000Z 16020KT 9999 VCSH FEW025 SCT035 BKN045 13/08 Q1024
Conditions at: YSSY (SYDNEY INTL AIRP, AU) observed 2000 UTC 25 September 2021
Temperature: 13.0°C (55°F)
Dewpoint: 8.0°C (46°F) [RH = 72%]
Pressure (altimeter): 30.24 inches Hg (1024.0 mb)
Winds: from the SSE (160 degrees) at 23 MPH (20 knots; 10.3 m/s)
Visibility: 6 or more miles (10+ km)
Ceiling: 4500 feet AGL
Clouds: few clouds at 2500 feet AGL
scattered clouds at 3500 feet AGL
broken clouds at 4500 feet AGL
Weather: VCSH  (showers in vicinity)

METAR text: YSSY 251930Z 16021KT 9999 -SHRA FEW025 SCT035 BKN043 13/08 Q1024
Conditions at: YSSY (SYDNEY INTL AIRP, AU) observed 1930 UTC 25 September 2021
Temperature: 13.0°C (55°F)
Dewpoint: 8.0°C (46°F) [RH = 72%]
Pressure (altimeter): 30.24 inches Hg (1024.0 mb)
Winds: from the SSE (160 degrees) at 24 MPH (21 knots; 10.8 m/s)
Visibility: 6 or more miles (10+ km)
Ceiling: 4300 feet AGL
Clouds: few clouds at 2500 feet AGL
scattered clouds at 3500 feet AGL
broken clouds at 4300 feet AGL
Weather: -SHRA  (light rain showers)

METAR text: YSSY 251900Z 17019KT 9999 VCSH FEW025 SCT045 BKN055 13/08 Q1023
Conditions at: YSSY (SYDNEY INTL AIRP, AU) observed 1900 UTC 25 September 2021
Temperature: 13.0°C (55°F)
Dewpoint: 8.0°C (46°F) [RH = 72%]
Pressure (altimeter): 30.21 inches Hg (1023.0 mb)
Winds: from the S (170 degrees) at 22 MPH (19 knots; 9.8 m/s)
Visibility: 6 or more miles (10+ km)
Ceiling: 5500 feet AGL
Clouds: few clouds at 2500 feet AGL
scattered clouds at 4500 feet AGL
broken clouds at 5500 feet AGL
Weather: VCSH  (showers in vicinity)

METAR text: YSSY 251830Z 17020KT 9999 -SHRA FEW025 SCT033 BKN045 13/08 Q1023
Conditions at: YSSY (SYDNEY INTL AIRP, AU) observed 1830 UTC 25 September 2021
Temperature: 13.0°C (55°F)
Dewpoint: 8.0°C (46°F) [RH = 72%]
Pressure (altimeter): 30.21 inches Hg (1023.0 mb)
Winds: from the S (170 degrees) at 23 MPH (20 knots; 10.3 m/s)
Visibility: 6 or more miles (10+ km)
Ceiling: 4500 feet AGL
Clouds: few clouds at 2500 feet AGL
scattered clouds at 3300 feet AGL
broken clouds at 4500 feet AGL
Weather: -SHRA  (light rain showers)

METAR text: YSSY 251800Z 17019KT 9999 -SHRA FEW015 SCT025 BKN035 13/08 Q1023
Conditions at: YSSY (SYDNEY INTL AIRP, AU) observed 1800 UTC 25 September 2021
Temperature: 13.0°C (55°F)
Dewpoint: 8.0°C (46°F) [RH = 72%]
Pressure (altimeter): 30.21 inches Hg (1023.0 mb)
Winds: from the S (170 degrees) at 22 MPH (19 knots; 9.8 m/s)
Visibility: 6 or more miles (10+ km)
Ceiling: 3500 feet AGL
Clouds: few clouds at 1500 feet AGL
scattered clouds at 2500 feet AGL
broken clouds at 3500 feet AGL
Weather: -SHRA  (light rain showers)

METAR text: YSSY 251730Z 16017KT 9999 -SHRA FEW015 SCT025 BKN035 13/08 Q1023
Conditions at: YSSY (SYDNEY INTL AIRP, AU) observed 1730 UTC 25 September 2021
Temperature: 13.0°C (55°F)
Dewpoint: 8.0°C (46°F) [RH = 72%]
Pressure (altimeter): 30.21 inches Hg (1023.0 mb)
Winds: from the SSE (160 degrees) at 20 MPH (17 knots; 8.7 m/s)
Visibility: 6 or more miles (10+ km)
Ceiling: 3500 feet AGL
Clouds: few clouds at 1500 feet AGL
scattered clouds at 2500 feet AGL
broken clouds at 3500 feet AGL
Weather: -SHRA  (light rain showers)

METAR text: YSSY 251700Z 14017KT 9999 -SHRA FEW015 SCT025 BKN030 13/08 Q1023
Conditions at: YSSY (SYDNEY INTL AIRP, AU) observed 1700 UTC 25 September 2021
Temperature: 13.0°C (55°F)
Dewpoint: 8.0°C (46°F) [RH = 72%]
Pressure (altimeter): 30.21 inches Hg (1023.0 mb)
Winds: from the SE (140 degrees) at 20 MPH (17 knots; 8.7 m/s)
Visibility: 6 or more miles (10+ km)
Ceiling: 3000 feet AGL
Clouds: few clouds at 1500 feet AGL
scattered clouds at 2500 feet AGL
broken clouds at 3000 feet AGL
Weather: -SHRA  (light rain showers)

METAR text: YSSY 251630Z 16017KT 9999 -SHRA SCT025 BKN035 13/08 Q1023
Conditions at: YSSY (SYDNEY INTL AIRP, AU) observed 1630 UTC 25 September 2021
Temperature: 13.0°C (55°F)
Dewpoint: 8.0°C (46°F) [RH = 72%]
Pressure (altimeter): 30.21 inches Hg (1023.0 mb)
Winds: from the SSE (160 degrees) at 20 MPH (17 knots; 8.7 m/s)
Visibility: 6 or more miles (10+ km)
Ceiling: 3500 feet AGL
Clouds: scattered clouds at 2500 feet AGL
broken clouds at 3500 feet AGL
Weather: -SHRA  (light rain showers)

METAR text: YSSY 251600Z 17017KT 9999 -SHRA FEW025 SCT035 BKN045 14/08 Q1023
Conditions at: YSSY (SYDNEY INTL AIRP, AU) observed 1600 UTC 25 September 2021
Temperature: 14.0°C (57°F)
Dewpoint: 8.0°C (46°F) [RH = 67%]
Pressure (altimeter): 30.21 inches Hg (1023.0 mb)
Winds: from the S (170 degrees) at 20 MPH (17 knots; 8.7 m/s)
Visibility: 6 or more miles (10+ km)
Ceiling: 4500 feet AGL
Clouds: few clouds at 2500 feet AGL
scattered clouds at 3500 feet AGL
broken clouds at 4500 feet AGL
Weather: -SHRA  (light rain showers)

METAR text: YSSY 251530Z 15015KT 9999 VCSH FEW025 SCT045 BKN060 13/07 Q1023
Conditions at: YSSY (SYDNEY INTL AIRP, AU) observed 1530 UTC 25 September 2021
Temperature: 13.0°C (55°F)
Dewpoint: 7.0°C (45°F) [RH = 67%]
Pressure (altimeter): 30.21 inches Hg (1023.0 mb)
Winds: from the SSE (150 degrees) at 17 MPH (15 knots; 7.7 m/s)
Visibility: 6 or more miles (10+ km)
Ceiling: 6000 feet AGL
Clouds: few clouds at 2500 feet AGL
scattered clouds at 4500 feet AGL
broken clouds at 6000 feet AGL
Weather: VCSH  (showers in vicinity)

METAR text: YSSY 251500Z 15016KT 9999 VCSH FEW025 SCT040 BKN058 13/08 Q1023
Conditions at: YSSY (SYDNEY INTL AIRP, AU) observed 1500 UTC 25 September 2021
Temperature: 13.0°C (55°F)
Dewpoint: 8.0°C (46°F) [RH = 72%]
Pressure (altimeter): 30.21 inches Hg (1023.0 mb)
Winds: from the SSE (150 degrees) at 18 MPH (16 knots; 8.2 m/s)
Visibility: 6 or more miles (10+ km)
Ceiling: 5800 feet AGL
Clouds: few clouds at 2500 feet AGL
scattered clouds at 4000 feet AGL
broken clouds at 5800 feet AGL
Weather: VCSH  (showers in vicinity)

METAR text: YSSY 251430Z 15016KT 9999 VCSH SCT025 SCT035 BKN045 13/08 Q1023
Conditions at: YSSY (SYDNEY INTL AIRP, AU) observed 1430 UTC 25 September 2021
Temperature: 13.0°C (55°F)
Dewpoint: 8.0°C (46°F) [RH = 72%]
Pressure (altimeter): 30.21 inches Hg (1023.0 mb)
Winds: from the SSE (150 degrees) at 18 MPH (16 knots; 8.2 m/s)
Visibility: 6 or more miles (10+ km)
Ceiling: 4500 feet AGL
Clouds: scattered clouds at 2500 feet AGL
scattered clouds at 3500 feet AGL
broken clouds at 4500 feet AGL
Weather: VCSH  (showers in vicinity)

METAR text: YSSY 251400Z 15016KT 9999 -DZ SCT025 SCT035 BKN060 14/08 Q1023
Conditions at: YSSY (SYDNEY INTL AIRP, AU) observed 1400 UTC 25 September 2021
Temperature: 14.0°C (57°F)
Dewpoint: 8.0°C (46°F) [RH = 67%]
Pressure (altimeter): 30.21 inches Hg (1023.0 mb)
Winds: from the SSE (150 degrees) at 18 MPH (16 knots; 8.2 m/s)
Visibility: 6 or more miles (10+ km)
Ceiling: 6000 feet AGL
Clouds: scattered clouds at 2500 feet AGL
scattered clouds at 3500 feet AGL
broken clouds at 6000 feet AGL
Weather: -DZ  (light drizzle)

METAR text: YSSY 251330Z 16013KT 9999 VCSH SCT027 SCT040 BKN065 14/09 Q1023
Conditions at: YSSY (SYDNEY INTL AIRP, AU) observed 1330 UTC 25 September 2021
Temperature: 14.0°C (57°F)
Dewpoint: 9.0°C (48°F) [RH = 72%]
Pressure (altimeter): 30.21 inches Hg (1023.0 mb)
Winds: from the SSE (160 degrees) at 15 MPH (13 knots; 6.7 m/s)
Visibility: 6 or more miles (10+ km)
Ceiling: 6500 feet AGL
Clouds: scattered clouds at 2700 feet AGL
scattered clouds at 4000 feet AGL
broken clouds at 6500 feet AGL
Weather: VCSH  (showers in vicinity)

METAR text: YSSY 251300Z 16012KT 9999 VCSH FEW025 SCT040 BKN065 13/08 Q1022
Conditions at: YSSY (SYDNEY INTL AIRP, AU) observed 1300 UTC 25 September 2021
Temperature: 13.0°C (55°F)
Dewpoint: 8.0°C (46°F) [RH = 72%]
Pressure (altimeter): 30.18 inches Hg (1022.0 mb)
Winds: from the SSE (160 degrees) at 14 MPH (12 knots; 6.2 m/s)
Visibility: 6 or more miles (10+ km)
Ceiling: 6500 feet AGL
Clouds: few clouds at 2500 feet AGL
scattered clouds at 4000 feet AGL
broken clouds at 6500 feet AGL
Weather: VCSH  (showers in vicinity)

METAR text: YSSY 251230Z 16014KT 9999 VCSH BKN025 BKN065 14/10 Q1022
Conditions at: YSSY (SYDNEY INTL AIRP, AU) observed 1230 UTC 25 September 2021
Temperature: 14.0°C (57°F)
Dewpoint: 10.0°C (50°F) [RH = 77%]
Pressure (altimeter): 30.18 inches Hg (1022.0 mb)
Winds: from the SSE (160 degrees) at 16 MPH (14 knots; 7.2 m/s)
Visibility: 6 or more miles (10+ km)
Ceiling: 2500 feet AGL
Clouds: broken clouds at 2500 feet AGL
broken clouds at 6500 feet AGL
Weather: VCSH  (showers in vicinity)

METAR text: YSSY 251200Z 15014KT 9999 VCSH FEW025 SCT035 BKN065 14/09 Q1022
Conditions at: YSSY (SYDNEY INTL AIRP, AU) observed 1200 UTC 25 September 2021
Temperature: 14.0°C (57°F)
Dewpoint: 9.0°C (48°F) [RH = 72%]
Pressure (altimeter): 30.18 inches Hg (1022.0 mb)
Winds: from the SSE (150 degrees) at 16 MPH (14 knots; 7.2 m/s)
Visibility: 6 or more miles (10+ km)
Ceiling: 6500 feet AGL
Clouds: few clouds at 2500 feet AGL
scattered clouds at 3500 feet AGL
broken clouds at 6500 feet AGL
Weather: VCSH  (showers in vicinity)

METAR text: YSSY 251130Z 17012KT 9999 VCSH FEW025 SCT050 BKN060 13/09 Q1022
Conditions at: YSSY (SYDNEY INTL AIRP, AU) observed 1130 UTC 25 September 2021
Temperature: 13.0°C (55°F)
Dewpoint: 9.0°C (48°F) [RH = 77%]
Pressure (altimeter): 30.18 inches Hg (1022.0 mb)
Winds: from the S (170 degrees) at 14 MPH (12 knots; 6.2 m/s)
Visibility: 6 or more miles (10+ km)
Ceiling: 6000 feet AGL
Clouds: few clouds at 2500 feet AGL
scattered clouds at 5000 feet AGL
broken clouds at 6000 feet AGL
Weather: VCSH  (showers in vicinity)

METAR text: YSSY 251100Z 15014KT 9999 VCSH FEW025 SCT032 BKN050 14/09 Q1022
Conditions at: YSSY (SYDNEY INTL AIRP, AU) observed 1100 UTC 25 September 2021
Temperature: 14.0°C (57°F)
Dewpoint: 9.0°C (48°F) [RH = 72%]
Pressure (altimeter): 30.18 inches Hg (1022.0 mb)
Winds: from the SSE (150 degrees) at 16 MPH (14 knots; 7.2 m/s)
Visibility: 6 or more miles (10+ km)
Ceiling: 5000 feet AGL
Clouds: few clouds at 2500 feet AGL
scattered clouds at 3200 feet AGL
broken clouds at 5000 feet AGL
Weather: VCSH  (showers in vicinity)

METAR text: YSSY 251030Z 15016KT 9999 VCSH FEW025 SCT040 BKN050 14/09 Q1022
Conditions at: YSSY (SYDNEY INTL AIRP, AU) observed 1030 UTC 25 September 2021
Temperature: 14.0°C (57°F)
Dewpoint: 9.0°C (48°F) [RH = 72%]
Pressure (altimeter): 30.18 inches Hg (1022.0 mb)
Winds: from the SSE (150 degrees) at 18 MPH (16 knots; 8.2 m/s)
Visibility: 6 or more miles (10+ km)
Ceiling: 5000 feet AGL
Clouds: few clouds at 2500 feet AGL
scattered clouds at 4000 feet AGL
broken clouds at 5000 feet AGL
Weather: VCSH  (showers in vicinity)

METAR text: YSSY 251000Z 16014KT 9999 VCSH FEW025 BKN045 15/09 Q1021
Conditions at: YSSY (SYDNEY INTL AIRP, AU) observed 1000 UTC 25 September 2021
Temperature: 15.0°C (59°F)
Dewpoint: 9.0°C (48°F) [RH = 67%]
Pressure (altimeter): 30.15 inches Hg (1021.0 mb)
Winds: from the SSE (160 degrees) at 16 MPH (14 knots; 7.2 m/s)
Visibility: 6 or more miles (10+ km)
Ceiling: 4500 feet AGL
Clouds: few clouds at 2500 feet AGL
broken clouds at 4500 feet AGL
Weather: VCSH  (showers in vicinity)

METAR text: YSSY 250930Z 16016KT 9999 VCSH FEW025 SCT045 BKN070 14/08 Q1021
Conditions at: YSSY (SYDNEY INTL AIRP, AU) observed 0930 UTC 25 September 2021
Temperature: 14.0°C (57°F)
Dewpoint: 8.0°C (46°F) [RH = 67%]
Pressure (altimeter): 30.15 inches Hg (1021.0 mb)
Winds: from the SSE (160 degrees) at 18 MPH (16 knots; 8.2 m/s)
Visibility: 6 or more miles (10+ km)
Ceiling: 7000 feet AGL
Clouds: few clouds at 2500 feet AGL
scattered clouds at 4500 feet AGL
broken clouds at 7000 feet AGL
Weather: VCSH  (showers in vicinity)

METAR text: YSSY 250900Z 15019KT 9999 VCSH FEW027 BKN065 14/09 Q1020
Conditions at: YSSY (SYDNEY INTL AIRP, AU) observed 0900 UTC 25 September 2021
Temperature: 14.0°C (57°F)
Dewpoint: 9.0°C (48°F) [RH = 72%]
Pressure (altimeter): 30.12 inches Hg (1020.0 mb)
Winds: from the SSE (150 degrees) at 22 MPH (19 knots; 9.8 m/s)
Visibility: 6 or more miles (10+ km)
Ceiling: 6500 feet AGL
Clouds: few clouds at 2700 feet AGL
broken clouds at 6500 feet AGL
Weather: VCSH  (showers in vicinity)

METAR text: YSSY 250830Z 15015KT 9999 -DZ FEW027 SCT040 BKN057 15/09 Q1020
Conditions at: YSSY (SYDNEY INTL AIRP, AU) observed 0830 UTC 25 September 2021
Temperature: 15.0°C (59°F)
Dewpoint: 9.0°C (48°F) [RH = 67%]
Pressure (altimeter): 30.12 inches Hg (1020.0 mb)
Winds: from the SSE (150 degrees) at 17 MPH (15 knots; 7.7 m/s)
Visibility: 6 or more miles (10+ km)
Ceiling: 5700 feet AGL
Clouds: few clouds at 2700 feet AGL
scattered clouds at 4000 feet AGL
broken clouds at 5700 feet AGL
Weather: -DZ  (light drizzle)

METAR text: YSSY 250800Z AUTO 17018KT 9999 // SCT031 BKN047 OVC056 14/09 Q1020
Conditions at: YSSY (SYDNEY INTL AIRP, AU) observed 0800 UTC 25 September 2021
Temperature: 14.0°C (57°F)
Dewpoint: 9.0°C (48°F) [RH = 72%]
Pressure (altimeter): 30.12 inches Hg (1020.0 mb)
Winds: from the S (170 degrees) at 21 MPH (18 knots; 9.3 m/s)
Visibility: 6 or more miles (10+ km)
Ceiling: 4700 feet AGL
Clouds: scattered clouds at 3100 feet AGL
broken clouds at 4700 feet AGL
overcast cloud deck at 5600 feet AGL
Weather: no significant weather observed at this time

METAR text: YSSY 250730Z 15016KT 9999 -DZ VCSH SCT027 BKN037 15/09 Q1019
Conditions at: YSSY (SYDNEY INTL AIRP, AU) observed 0730 UTC 25 September 2021
Temperature: 15.0°C (59°F)
Dewpoint: 9.0°C (48°F) [RH = 67%]
Pressure (altimeter): 30.09 inches Hg (1019.0 mb)
Winds: from the SSE (150 degrees) at 18 MPH (16 knots; 8.2 m/s)
Visibility: 6 or more miles (10+ km)
Ceiling: 3700 feet AGL
Clouds: scattered clouds at 2700 feet AGL
broken clouds at 3700 feet AGL
Weather: -DZ VCSH  (light drizzle, showers in vicinity)

Forecast for: YSSY (SYDNEY INTL AIRP, AU)
Text: TAF YSSY 261716Z 2618/2800 32006KT 9999 SCT040
Forecast period: 1800 to 2300 UTC 26 September 2021
Forecast type: FROM: standard forecast or significant change
Winds: from the NW (320 degrees) at 7 MPH (6 knots; 3.1 m/s)
Visibility: 6 or more miles (10+ km)
Ceiling: at least 12,000 feet AGL
Clouds: scattered clouds at 4000 feet AGL
Weather: no significant weather forecast for this period
Text: FM262300 01010KT 9999 FEW050
Forecast period: 2300 UTC 26 September 2021 to 0100 UTC 27 September 2021
Forecast type: FROM: standard forecast or significant change
Winds: from the N (10 degrees) at 12 MPH (10 knots; 5.1 m/s)
Visibility: 6 or more miles (10+ km)
Ceiling: at least 12,000 feet AGL
Clouds: few clouds at 5000 feet AGL
Weather: no significant weather forecast for this period
Text: FM270100 05016KT 9999 FEW050
Forecast period: 0100 to 0900 UTC 27 September 2021
Forecast type: FROM: standard forecast or significant change
Winds: from the NE (50 degrees) at 18 MPH (16 knots; 8.2 m/s)
Visibility: 6 or more miles (10+ km)
Ceiling: at least 12,000 feet AGL
Clouds: few clouds at 5000 feet AGL
Weather: no significant weather forecast for this period
Text: FM270900 03010KT CAVOK
Forecast period: 0900 to 1300 UTC 27 September 2021
Forecast type: FROM: standard forecast or significant change
Winds: from the NNE (30 degrees) at 12 MPH (10 knots; 5.1 m/s)
Visibility: 6 or more miles (10+ km)
Ceiling: unknown
Clouds: missing
Weather: NSW  (no significant weather)
Text: FM271300 32008KT CAVOK
Forecast period: 1300 UTC 27 September 2021 to 0000 UTC 28 September 2021
Forecast type: FROM: standard forecast or significant change
Winds: from the NW (320 degrees) at 9 MPH (8 knots; 4.1 m/s)
Visibility: 6 or more miles (10+ km)
Ceiling: unknown
Clouds: missing
Weather: NSW  (no significant weather)